createdAt,value
2023-05-03T00:00:19.011Z,99.90
2023-05-03T00:01:20.610Z,99.90
2023-05-03T00:02:22.083Z,99.90
2023-05-03T00:03:24.436Z,99.90
2023-05-03T00:04:26.168Z,99.90
2023-05-03T00:05:28.032Z,99.90
2023-05-03T00:06:29.863Z,99.90
2023-05-03T00:07:31.338Z,99.90
2023-05-03T00:08:33.137Z,99.90
2023-05-03T00:09:37.835Z,99.90
2023-05-03T00:10:39.540Z,99.90
2023-05-03T00:11:41.550Z,99.90
2023-05-03T00:12:44.140Z,99.90
2023-05-03T00:13:45.930Z,99.90
2023-05-03T00:14:47.668Z,99.90
2023-05-03T00:15:50.254Z,99.90
2023-05-03T00:16:51.729Z,99.90
2023-05-03T00:17:53.448Z,99.90
2023-05-03T00:18:55.196Z,99.90
2023-05-03T00:19:56.869Z,99.90
2023-05-03T00:21:01.361Z,99.90
2023-05-03T00:22:03.885Z,99.90
2023-05-03T00:23:05.942Z,99.90
2023-05-03T00:24:07.383Z,99.90
2023-05-03T00:25:10.303Z,99.90
2023-05-03T00:26:11.715Z,99.90
2023-05-03T00:27:13.781Z,99.90
2023-05-03T00:28:15.598Z,99.90
2023-05-03T00:29:18.860Z,99.90
2023-05-03T00:30:21.226Z,99.90
2023-05-03T00:31:22.739Z,99.90
2023-05-03T00:32:24.677Z,99.90
2023-05-03T00:33:26.366Z,99.90
2023-05-03T00:34:27.856Z,99.90
2023-05-03T00:35:29.393Z,99.90
2023-05-03T00:36:31.230Z,99.90
2023-05-03T00:37:33.002Z,99.90
2023-05-03T00:38:34.647Z,99.90
2023-05-03T00:39:36.242Z,99.90
2023-05-03T00:40:37.705Z,99.90
2023-05-03T00:41:39.815Z,99.90
2023-05-03T00:42:41.313Z,99.90
2023-05-03T00:43:42.822Z,99.90
2023-05-03T00:44:44.368Z,99.90
2023-05-03T00:45:46.385Z,99.90
2023-05-03T00:46:48.232Z,99.90
2023-05-03T00:47:49.877Z,99.90
2023-05-03T00:48:51.507Z,99.90
2023-05-03T00:49:53.259Z,99.90
2023-05-03T00:50:56.951Z,99.90
2023-05-03T00:51:59.378Z,99.90
2023-05-03T00:53:00.870Z,99.90
2023-05-03T00:54:02.450Z,99.90
2023-05-03T00:55:04.749Z,99.90
2023-05-03T00:56:07.141Z,99.90
2023-05-03T00:57:09.336Z,99.90
2023-05-03T00:58:10.849Z,99.90
2023-05-03T00:59:12.681Z,99.90
2023-05-03T01:00:15.400Z,99.90
2023-05-03T01:01:17.898Z,99.90
2023-05-03T01:02:19.422Z,99.90
2023-05-03T01:03:21.626Z,99.90
2023-05-03T01:04:23.896Z,99.90
2023-05-03T01:05:29.059Z,99.90
2023-05-03T01:06:48.271Z,99.90
2023-05-03T01:08:11.388Z,99.90
2023-05-03T01:09:21.717Z,99.90
2023-05-03T01:10:50.837Z,99.90
2023-05-03T01:12:13.676Z,99.90
2023-05-03T01:13:28.350Z,99.90
2023-05-03T01:15:05.664Z,99.90
2023-05-03T01:16:17.544Z,99.90
2023-05-03T01:17:32.301Z,99.90
2023-05-03T01:18:39.246Z,99.90
2023-05-03T01:19:53.133Z,99.90
2023-05-03T01:20:56.484Z,99.90
2023-05-03T01:22:17.198Z,99.90
2023-05-03T01:23:37.505Z,99.90
2023-05-03T01:24:42.968Z,99.90
2023-05-03T01:25:44.394Z,99.90
2023-05-03T01:26:46.593Z,99.90
2023-05-03T01:27:48.804Z,99.90
2023-05-03T01:28:51.048Z,99.90
2023-05-03T01:29:52.456Z,99.90
2023-05-03T01:30:56.062Z,99.90
2023-05-03T01:32:01.634Z,99.90
2023-05-03T01:33:28.064Z,99.90
2023-05-03T01:34:48.280Z,99.90
2023-05-03T01:35:58.756Z,99.90
2023-05-03T01:37:03.265Z,99.90
2023-05-03T01:38:05.566Z,99.90
2023-05-03T01:39:12.510Z,99.90
2023-05-03T01:40:16.910Z,99.90
2023-05-03T01:41:21.447Z,99.90
2023-05-03T01:42:25.434Z,99.90
2023-05-03T01:43:31.542Z,99.90
2023-05-03T01:44:33.879Z,99.90
2023-05-03T01:45:35.636Z,99.90
2023-05-03T01:46:44.333Z,99.90
2023-05-03T01:47:46.236Z,99.90
2023-05-03T01:48:48.898Z,99.90
2023-05-03T01:49:50.323Z,99.90
2023-05-03T01:50:51.788Z,99.90
2023-05-03T01:51:53.539Z,99.90
2023-05-03T01:52:54.949Z,99.90
2023-05-03T01:53:56.378Z,99.90
2023-05-03T01:54:57.732Z,99.90
2023-05-03T01:55:59.132Z,99.90
2023-05-03T01:57:01.696Z,99.90
2023-05-03T01:58:03.210Z,99.90
2023-05-03T01:59:05.557Z,99.90
2023-05-03T02:00:07.572Z,99.90
2023-05-03T02:01:14.147Z,99.90
2023-05-03T02:02:15.704Z,99.90
2023-05-03T02:03:17.194Z,99.90
2023-05-03T02:04:20.706Z,99.90
2023-05-03T02:05:22.439Z,99.90
2023-05-03T02:06:26.112Z,99.90
2023-05-03T02:07:27.851Z,99.90
2023-05-03T02:08:29.321Z,99.90
2023-05-03T02:09:30.720Z,99.90
2023-05-03T02:10:32.332Z,99.90
2023-05-03T02:11:33.831Z,99.90
2023-05-03T02:12:35.307Z,99.90
2023-05-03T02:13:38.297Z,99.90
2023-05-03T02:14:39.861Z,99.90
2023-05-03T02:15:41.373Z,99.90
2023-05-03T02:16:43.247Z,99.90
2023-05-03T02:17:47.191Z,99.90
2023-05-03T02:18:48.623Z,99.90
2023-05-03T02:19:50.275Z,99.90
2023-05-03T02:20:51.658Z,99.90
2023-05-03T02:21:53.091Z,99.90
2023-05-03T02:22:54.516Z,99.90
2023-05-03T02:23:56.104Z,99.90
2023-05-03T02:24:58.669Z,99.90
2023-05-03T02:26:00.578Z,99.90
2023-05-03T02:27:06.838Z,99.90
2023-05-03T02:28:08.628Z,99.90
2023-05-03T02:29:10.753Z,99.90
2023-05-03T02:30:12.413Z,99.90
2023-05-03T02:31:17.466Z,99.90
2023-05-03T02:32:19.097Z,99.90
2023-05-03T02:33:21.179Z,99.90
2023-05-03T02:34:22.847Z,99.90
2023-05-03T02:35:26.271Z,99.90
2023-05-03T02:36:28.003Z,99.90
2023-05-03T02:37:29.798Z,99.90
2023-05-03T02:38:31.553Z,99.90
2023-05-03T02:39:32.970Z,99.90
2023-05-03T02:40:34.624Z,99.90
2023-05-03T02:41:36.532Z,99.90
2023-05-03T02:42:39.499Z,99.90
2023-05-03T02:43:42.296Z,99.90
2023-05-03T02:44:43.962Z,99.90
2023-05-03T02:45:45.435Z,99.90
2023-05-03T02:46:47.558Z,99.90
2023-05-03T02:47:50.135Z,99.90
2023-05-03T02:48:52.666Z,99.90
2023-05-03T02:49:54.066Z,99.90
2023-05-03T02:50:56.020Z,99.90
2023-05-03T02:51:58.254Z,99.90
2023-05-03T02:52:59.761Z,99.90
2023-05-03T02:54:01.306Z,99.90
2023-05-03T02:55:03.116Z,99.90
2023-05-03T02:56:04.867Z,99.90
2023-05-03T02:57:06.746Z,99.90
2023-05-03T02:58:08.268Z,99.90
2023-05-03T02:59:09.964Z,99.90
2023-05-03T03:00:15.343Z,99.90
2023-05-03T03:01:17.723Z,99.90
2023-05-03T03:02:19.295Z,99.90
2023-05-03T03:03:20.884Z,99.90
2023-05-03T03:04:22.306Z,99.90
2023-05-03T03:05:24.658Z,99.90
2023-05-03T03:06:26.347Z,99.90
2023-05-03T03:07:28.655Z,99.90
2023-05-03T03:08:31.965Z,99.90
2023-05-03T03:09:36.306Z,99.90
2023-05-03T03:10:38.092Z,99.90
2023-05-03T03:11:40.935Z,99.90
2023-05-03T03:12:43.963Z,99.90
2023-05-03T03:13:52.797Z,99.90
2023-05-03T03:14:55.709Z,99.90
2023-05-03T03:15:57.267Z,99.90
2023-05-03T03:16:58.907Z,99.90
2023-05-03T03:18:00.954Z,99.90
2023-05-03T03:19:03.245Z,99.90
2023-05-03T03:20:06.818Z,99.90
2023-05-03T03:21:08.663Z,99.90
2023-05-03T03:22:11.126Z,99.90
2023-05-03T03:23:13.303Z,99.90
2023-05-03T03:24:15.879Z,99.90
2023-05-03T03:25:19.990Z,99.90
2023-05-03T03:26:21.805Z,99.90
2023-05-03T03:27:24.417Z,99.90
2023-05-03T03:28:25.979Z,99.90
2023-05-03T03:29:31.770Z,99.90
2023-05-03T03:30:34.293Z,99.90
2023-05-03T03:31:45.702Z,99.90
2023-05-03T03:32:47.972Z,99.90
2023-05-03T03:33:58.171Z,99.90
2023-05-03T03:35:02.913Z,99.90
2023-05-03T03:36:08.314Z,99.90
2023-05-03T03:37:13.364Z,99.90
2023-05-03T03:38:16.608Z,99.90
2023-05-03T03:39:25.861Z,99.90
2023-05-03T03:40:27.703Z,99.90
2023-05-03T03:41:31.169Z,99.90
2023-05-03T03:42:32.595Z,99.90
2023-05-03T03:43:34.128Z,99.90
2023-05-03T03:44:39.500Z,99.90
2023-05-03T03:45:42.171Z,99.90
2023-05-03T03:46:44.693Z,99.90
2023-05-03T03:47:46.204Z,99.90
2023-05-03T03:48:48.311Z,99.90
2023-05-03T03:49:50.173Z,99.90
2023-05-03T03:50:51.780Z,99.90
2023-05-03T03:51:55.711Z,99.90
2023-05-03T03:52:57.351Z,99.90
2023-05-03T03:53:58.967Z,99.90
2023-05-03T03:55:04.993Z,99.90
2023-05-03T03:56:07.258Z,99.90
2023-05-03T03:57:09.210Z,99.90
2023-05-03T03:58:11.188Z,99.90
2023-05-03T03:59:12.828Z,99.90
2023-05-03T04:00:14.751Z,99.90
2023-05-03T04:01:22.422Z,99.90
2023-05-03T04:02:24.691Z,99.90
2023-05-03T04:03:26.560Z,99.90
2023-05-03T04:04:28.354Z,99.90
2023-05-03T04:05:31.531Z,99.90
2023-05-03T04:06:33.807Z,99.90
2023-05-03T04:07:39.497Z,99.90
2023-05-03T04:08:41.878Z,99.90
2023-05-03T04:09:44.370Z,99.90
2023-05-03T04:10:46.382Z,99.90
2023-05-03T04:11:48.374Z,99.90
2023-05-03T04:12:49.989Z,99.90
2023-05-03T04:13:51.908Z,99.90
2023-05-03T04:14:53.490Z,99.90
2023-05-03T04:15:56.835Z,99.90
2023-05-03T04:16:59.672Z,99.90
2023-05-03T04:18:01.871Z,99.90
2023-05-03T04:19:04.058Z,99.90
2023-05-03T04:20:07.612Z,99.90
2023-05-03T04:21:09.271Z,99.90
2023-05-03T04:22:10.846Z,99.90
2023-05-03T04:23:12.676Z,99.90
2023-05-03T04:24:17.427Z,99.90
2023-05-03T04:25:19.353Z,99.90
2023-05-03T04:26:32.229Z,99.90
2023-05-03T04:27:41.562Z,99.90
2023-05-03T04:28:43.346Z,99.90
2023-05-03T04:29:45.120Z,99.90
2023-05-03T04:30:47.464Z,99.90
2023-05-03T04:31:52.331Z,99.90
2023-05-03T04:32:54.410Z,99.90
2023-05-03T04:33:58.084Z,99.90
2023-05-03T04:35:00.770Z,99.90
2023-05-03T04:36:02.948Z,99.90
2023-05-03T04:37:05.260Z,99.90
2023-05-03T04:38:07.563Z,99.90
2023-05-03T04:39:12.039Z,99.90
2023-05-03T04:40:14.597Z,99.90
2023-05-03T04:41:20.770Z,99.90
2023-05-03T04:42:22.903Z,99.90
2023-05-03T04:43:24.389Z,99.90
2023-05-03T04:45:28.166Z,99.90
2023-05-03T04:46:29.650Z,99.90
2023-05-03T04:47:31.273Z,99.90
2023-05-03T04:48:33.304Z,99.90
2023-05-03T04:49:34.885Z,99.90
2023-05-03T04:50:36.698Z,99.90
2023-05-03T04:51:38.975Z,99.90
2023-05-03T04:52:40.725Z,99.90
2023-05-03T04:53:42.963Z,99.90
2023-05-03T04:54:49.253Z,99.90
2023-05-03T04:55:51.005Z,99.90
2023-05-03T04:56:53.814Z,99.90
2023-05-03T04:57:56.543Z,99.90
2023-05-03T04:58:58.104Z,99.90
2023-05-03T05:00:00.796Z,99.90
2023-05-03T05:01:03.302Z,99.90
2023-05-03T05:02:05.728Z,99.90
2023-05-03T05:03:07.817Z,99.90
2023-05-03T05:04:09.625Z,99.90
2023-05-03T05:05:20.223Z,99.90
2023-05-03T05:06:22.472Z,99.90
2023-05-03T05:07:24.144Z,99.90
2023-05-03T05:08:25.939Z,99.90
2023-05-03T05:09:31.859Z,99.90
2023-05-03T05:10:41.801Z,99.90
2023-05-03T05:11:45.205Z,99.90
2023-05-03T05:12:46.742Z,99.90
2023-05-03T05:13:48.424Z,99.90
2023-05-03T05:14:50.169Z,99.90
2023-05-03T05:15:52.101Z,99.90
2023-05-03T05:16:53.661Z,99.90
2023-05-03T05:17:55.831Z,99.90
2023-05-03T05:18:57.443Z,99.90
2023-05-03T05:20:01.718Z,99.90
2023-05-03T05:21:04.629Z,99.90
2023-05-03T05:22:08.538Z,99.90
2023-05-03T05:23:20.694Z,99.90
2023-05-03T05:24:23.029Z,99.90
2023-05-03T05:25:32.427Z,99.90
2023-05-03T05:26:36.220Z,99.90
2023-05-03T05:27:37.883Z,99.90
2023-05-03T05:28:39.819Z,99.90
2023-05-03T05:29:42.652Z,99.90
2023-05-03T05:30:44.043Z,99.90
2023-05-03T05:31:45.903Z,99.90
2023-05-03T05:32:47.548Z,99.90
2023-05-03T05:33:49.485Z,99.90
2023-05-03T05:34:55.293Z,99.90
2023-05-03T05:35:58.420Z,99.90
2023-05-03T05:37:00.668Z,99.90
2023-05-03T05:38:02.600Z,99.90
2023-05-03T05:39:05.319Z,99.90
2023-05-03T05:40:08.670Z,99.90
2023-05-03T05:41:21.351Z,99.90
2023-05-03T05:42:22.871Z,99.90
2023-05-03T05:43:24.916Z,99.90
2023-05-03T05:44:26.565Z,99.90
2023-05-03T05:45:28.010Z,99.90
2023-05-03T05:46:31.521Z,99.90
2023-05-03T05:47:33.842Z,99.90
2023-05-03T05:48:36.078Z,99.90
2023-05-03T05:49:38.440Z,99.90
2023-05-03T05:50:41.092Z,99.90
2023-05-03T05:51:46.207Z,99.90
2023-05-03T05:52:51.685Z,99.90
2023-05-03T05:53:54.252Z,99.90
2023-05-03T05:54:56.353Z,99.90
2023-05-03T05:55:57.924Z,99.90
2023-05-03T05:57:01.474Z,99.90
2023-05-03T05:58:04.024Z,99.90
2023-05-03T05:59:12.869Z,99.90
2023-05-03T06:00:14.982Z,99.90
2023-05-03T06:01:18.159Z,99.90
2023-05-03T06:02:23.498Z,99.90
2023-05-03T06:03:25.580Z,99.90
2023-05-03T06:04:27.630Z,99.90
2023-05-03T06:05:29.197Z,99.90
2023-05-03T06:06:31.405Z,99.90
2023-05-03T06:07:33.065Z,99.90
2023-05-03T06:08:34.534Z,99.90
2023-05-03T06:09:36.006Z,99.90
2023-05-03T06:10:40.285Z,99.90
2023-05-03T06:11:43.183Z,99.90
2023-05-03T06:12:44.873Z,99.90
2023-05-03T06:13:50.460Z,99.90
2023-05-03T06:15:01.898Z,99.90
2023-05-03T06:16:11.121Z,99.90
2023-05-03T06:17:12.709Z,99.90
2023-05-03T06:18:14.319Z,99.90
2023-05-03T06:19:16.016Z,99.90
2023-05-03T06:20:18.232Z,99.90
2023-05-03T06:21:22.063Z,99.90
2023-05-03T06:22:23.751Z,99.90
2023-05-03T06:23:27.762Z,99.90
2023-05-03T06:24:32.742Z,99.90
2023-05-03T06:25:36.169Z,99.90
2023-05-03T06:26:38.803Z,99.90
2023-05-03T06:27:41.211Z,99.90
2023-05-03T06:28:43.087Z,99.90
2023-05-03T06:29:45.008Z,99.90
2023-05-03T06:30:50.862Z,99.90
2023-05-03T06:31:53.275Z,99.90
2023-05-03T06:32:55.338Z,99.90
2023-05-03T06:33:56.808Z,99.90
2023-05-03T06:35:02.138Z,99.90
2023-05-03T06:36:03.889Z,99.90
2023-05-03T06:37:05.383Z,99.90
2023-05-03T06:38:07.486Z,99.90
2023-05-03T06:39:09.519Z,99.90
2023-05-03T06:40:11.262Z,99.90
2023-05-03T06:41:12.697Z,99.90
2023-05-03T06:42:14.356Z,99.90
2023-05-03T06:43:17.044Z,99.90
2023-05-03T06:44:24.911Z,99.90
2023-05-03T06:45:26.840Z,99.90
2023-05-03T06:46:28.576Z,99.90
2023-05-03T06:47:30.463Z,99.90
2023-05-03T06:48:32.067Z,99.90
2023-05-03T06:49:33.825Z,99.90
2023-05-03T06:50:36.161Z,99.90
2023-05-03T06:51:37.653Z,99.90
2023-05-03T06:52:39.403Z,99.90
2023-05-03T06:53:41.059Z,99.90
2023-05-03T06:54:42.504Z,99.90
2023-05-03T06:55:46.018Z,99.90
2023-05-03T06:56:47.514Z,99.90
2023-05-03T06:57:49.721Z,99.90
2023-05-03T06:58:51.201Z,99.90
2023-05-03T06:59:52.597Z,99.90
2023-05-03T07:00:54.159Z,99.90
2023-05-03T07:01:55.648Z,99.90
2023-05-03T07:02:57.231Z,99.90
2023-05-03T07:03:58.999Z,99.90
2023-05-03T07:05:01.012Z,99.90
2023-05-03T07:06:02.512Z,99.90
2023-05-03T07:07:04.419Z,99.90
2023-05-03T07:08:06.258Z,99.90
2023-05-03T07:09:08.350Z,99.90
2023-05-03T07:10:10.247Z,99.90
2023-05-03T07:11:11.659Z,99.90
2023-05-03T07:12:13.363Z,99.90
2023-05-03T07:13:15.190Z,99.90
2023-05-03T07:14:16.692Z,99.90
2023-05-03T07:15:18.373Z,99.90
2023-05-03T07:16:20.531Z,99.90
2023-05-03T07:17:23.043Z,99.90
2023-05-03T07:18:24.890Z,99.90
2023-05-03T07:19:26.858Z,99.90
2023-05-03T07:20:28.509Z,99.90
2023-05-03T07:21:30.342Z,99.90
2023-05-03T07:22:32.113Z,99.90
2023-05-03T07:23:33.748Z,99.90
2023-05-03T07:24:35.238Z,99.90
2023-05-03T07:25:36.664Z,99.90
2023-05-03T07:26:38.992Z,99.90
2023-05-03T07:27:40.726Z,99.90
2023-05-03T07:28:42.751Z,99.90
2023-05-03T07:29:44.359Z,99.90
2023-05-03T07:30:46.869Z,99.90
2023-05-03T07:31:48.754Z,99.90
2023-05-03T07:32:52.033Z,99.90
2023-05-03T07:33:53.688Z,99.90
2023-05-03T07:34:55.300Z,99.90
2023-05-03T07:35:56.769Z,99.90
2023-05-03T07:36:58.315Z,99.90
2023-05-03T07:37:59.829Z,99.90
2023-05-03T07:39:01.191Z,99.90
2023-05-03T07:40:03.049Z,99.90
2023-05-03T07:41:05.342Z,99.90
2023-05-03T07:42:07.562Z,99.90
2023-05-03T07:43:12.482Z,99.90
2023-05-03T07:44:16.198Z,99.90
2023-05-03T07:45:21.015Z,99.90
2023-05-03T07:46:23.188Z,99.90
2023-05-03T07:47:24.915Z,99.90
2023-05-03T07:48:27.202Z,99.90
2023-05-03T07:49:28.978Z,99.90
2023-05-03T07:50:31.245Z,99.90
2023-05-03T07:51:39.538Z,99.90
2023-05-03T07:52:43.765Z,99.90
2023-05-03T07:53:45.384Z,99.90
2023-05-03T07:54:46.884Z,99.90
2023-05-03T07:55:53.112Z,99.90
2023-05-03T07:56:57.590Z,99.90
2023-05-03T07:57:59.887Z,99.90
2023-05-03T08:00:11.586Z,99.90
2023-05-03T08:01:16.605Z,99.90
2023-05-03T08:02:18.427Z,99.90
2023-05-03T08:03:20.162Z,99.90
2023-05-03T08:04:22.033Z,99.90
2023-05-03T08:05:23.737Z,99.90
2023-05-03T08:06:25.459Z,99.90
2023-05-03T08:07:28.748Z,99.90
2023-05-03T08:08:32.224Z,99.90
2023-05-03T08:09:33.959Z,99.90
2023-05-03T08:10:37.965Z,99.90
2023-05-03T08:11:40.617Z,99.90
2023-05-03T08:12:45.586Z,99.90
2023-05-03T08:13:47.548Z,99.90
2023-05-03T08:14:48.974Z,99.90
2023-05-03T08:15:50.850Z,99.90
2023-05-03T08:16:52.426Z,99.90
2023-05-03T08:17:54.214Z,99.90
2023-05-03T08:18:55.823Z,99.90
2023-05-03T08:19:57.377Z,99.90
2023-05-03T08:20:58.767Z,99.90
2023-05-03T08:22:00.424Z,99.90
2023-05-03T08:23:02.549Z,99.90
2023-05-03T08:24:06.523Z,99.90
2023-05-03T08:25:08.691Z,99.90
2023-05-03T08:26:10.893Z,99.90
2023-05-03T08:27:12.602Z,99.90
2023-05-03T08:28:14.829Z,99.90
2023-05-03T08:29:16.769Z,99.90
2023-05-03T08:30:19.373Z,99.90
2023-05-03T08:31:21.054Z,99.90
2023-05-03T08:32:23.917Z,99.90
2023-05-03T08:33:25.507Z,99.90
2023-05-03T08:34:27.003Z,99.90
2023-05-03T08:35:28.568Z,99.90
2023-05-03T08:36:32.505Z,99.90
2023-05-03T08:37:41.377Z,99.90
2023-05-03T08:38:43.025Z,99.90
2023-05-03T08:39:45.128Z,99.90
2023-05-03T08:40:51.012Z,99.90
2023-05-03T08:41:56.207Z,99.90
2023-05-03T08:43:04.403Z,99.90
2023-05-03T08:44:07.923Z,99.90
2023-05-03T08:45:11.724Z,99.90
2023-05-03T08:46:13.775Z,99.90
2023-05-03T08:47:17.040Z,99.90
2023-05-03T08:48:18.886Z,99.90
2023-05-03T08:49:21.635Z,99.90
2023-05-03T08:50:24.432Z,99.90
2023-05-03T08:51:27.699Z,99.90
2023-05-03T08:52:29.171Z,99.90
2023-05-03T08:53:30.947Z,99.90
2023-05-03T08:54:32.345Z,99.90
2023-05-03T08:55:33.748Z,99.90
2023-05-03T08:56:43.342Z,99.90
2023-05-03T08:57:44.870Z,99.90
2023-05-03T08:58:46.262Z,99.90
2023-05-03T08:59:49.019Z,99.90
2023-05-03T09:00:50.950Z,99.90
2023-05-03T09:01:54.447Z,99.90
2023-05-03T09:02:56.628Z,99.90
2023-05-03T09:03:58.137Z,99.90
2023-05-03T09:04:59.637Z,99.90
2023-05-03T09:06:02.189Z,99.90
2023-05-03T09:07:11.150Z,99.90
2023-05-03T09:08:15.029Z,99.90
2023-05-03T09:09:31.234Z,99.90
2023-05-03T09:10:36.603Z,99.90
2023-05-03T09:11:38.970Z,99.90
2023-05-03T09:12:41.529Z,99.90
2023-05-03T09:13:43.185Z,99.90
2023-05-03T09:14:46.519Z,99.90
2023-05-03T09:15:54.697Z,99.90
2023-05-03T09:16:56.503Z,99.90
2023-05-03T09:18:08.722Z,99.90
2023-05-03T09:19:12.454Z,99.90
2023-05-03T09:20:13.858Z,99.90
2023-05-03T09:21:20.701Z,99.90
2023-05-03T09:22:25.384Z,99.90
2023-05-03T09:23:26.812Z,99.90
2023-05-03T09:24:29.146Z,99.90
2023-05-03T09:25:51.557Z,99.90
2023-05-03T09:26:54.267Z,99.90
2023-05-03T09:28:02.674Z,99.90
2023-05-03T09:29:05.184Z,99.90
2023-05-03T09:30:19.552Z,99.90
2023-05-03T09:31:21.914Z,99.90
2023-05-03T09:32:25.121Z,99.90
2023-05-03T09:33:30.480Z,99.90
2023-05-03T09:34:32.920Z,99.90
2023-05-03T09:35:35.451Z,99.90
2023-05-03T09:36:55.245Z,99.90
2023-05-03T09:37:56.826Z,99.90
2023-05-03T09:38:59.099Z,99.90
2023-05-03T09:40:11.609Z,99.90
2023-05-03T09:41:13.217Z,99.90
2023-05-03T09:42:18.785Z,99.90
2023-05-03T09:43:20.245Z,99.90
2023-05-03T09:44:48.910Z,99.90
2023-05-03T09:45:50.643Z,99.90
2023-05-03T09:47:05.518Z,99.90
2023-05-03T09:48:08.187Z,99.90
2023-05-03T09:49:09.774Z,99.90
2023-05-03T09:50:11.460Z,99.90
2023-05-03T09:51:13.216Z,99.90
2023-05-03T09:52:14.743Z,99.90
2023-05-03T09:53:18.781Z,99.90
2023-05-03T09:54:20.250Z,99.90
2023-05-03T09:55:22.384Z,99.90
2023-05-03T09:56:26.685Z,99.90
2023-05-03T09:57:28.837Z,99.90
2023-05-03T09:58:34.992Z,99.90
2023-05-03T09:59:38.399Z,99.90
2023-05-03T10:00:41.880Z,99.90
2023-05-03T10:01:44.758Z,99.90
2023-05-03T10:02:47.540Z,99.90
2023-05-03T10:03:51.116Z,99.90
2023-05-03T10:04:56.532Z,99.90
2023-05-03T10:06:02.417Z,99.90
2023-05-03T10:07:08.330Z,99.90
2023-05-03T10:08:12.457Z,99.90
2023-05-03T10:09:24.787Z,99.90
2023-05-03T10:10:30.711Z,99.90
2023-05-03T10:11:36.316Z,99.90
2023-05-03T10:12:38.707Z,99.90
2023-05-03T10:13:40.616Z,99.90
2023-05-03T10:14:43.685Z,99.90
2023-05-03T10:15:46.547Z,99.90
2023-05-03T10:16:50.593Z,99.90
2023-05-03T10:17:53.676Z,99.90
2023-05-03T10:19:16.126Z,99.90
2023-05-03T10:20:57.367Z,99.90
2023-05-03T10:22:07.225Z,99.90
2023-05-03T10:23:10.992Z,99.90
2023-05-03T10:24:14.368Z,99.90
2023-05-03T10:25:16.281Z,99.90
2023-05-03T10:26:18.318Z,99.90
2023-05-03T10:27:21.191Z,99.90
2023-05-03T10:28:22.599Z,99.90
2023-05-03T10:29:37.182Z,99.90
2023-05-03T10:30:40.026Z,99.90
2023-05-03T10:31:48.366Z,99.90
2023-05-03T10:32:50.240Z,99.90
2023-05-03T10:33:51.904Z,99.90
2023-05-03T10:35:14.355Z,99.90
2023-05-03T10:36:16.548Z,99.90
2023-05-03T10:37:18.125Z,99.90
2023-05-03T10:38:29.522Z,99.90
2023-05-03T10:39:31.330Z,99.90
2023-05-03T10:40:43.273Z,99.90
2023-05-03T10:41:45.576Z,99.90
2023-05-03T10:42:50.582Z,99.90
2023-05-03T10:43:52.051Z,99.90
2023-05-03T10:44:54.320Z,99.90
2023-05-03T10:45:57.631Z,99.90
2023-05-03T10:47:16.645Z,99.90
2023-05-03T10:48:20.945Z,99.90
2023-05-03T10:49:24.076Z,99.90
2023-05-03T10:50:26.348Z,99.90
2023-05-03T10:51:28.908Z,99.90
2023-05-03T10:52:36.316Z,99.90
2023-05-03T10:53:40.632Z,99.90
2023-05-03T10:54:42.045Z,99.90
2023-05-03T10:56:05.952Z,99.90
2023-05-03T10:57:08.451Z,99.90
2023-05-03T10:58:14.542Z,99.90
2023-05-03T10:59:16.497Z,99.90
2023-05-03T11:00:23.601Z,99.90
2023-05-03T11:01:27.388Z,99.90
2023-05-03T11:02:37.421Z,99.90
2023-05-03T11:04:02.466Z,99.90
2023-05-03T11:05:09.366Z,99.90
2023-05-03T11:06:26.576Z,99.90
2023-05-03T11:07:28.290Z,99.90
2023-05-03T11:08:31.072Z,99.90
2023-05-03T11:09:33.947Z,99.90
2023-05-03T11:10:35.472Z,99.90
2023-05-03T11:11:39.946Z,99.90
2023-05-03T11:12:41.484Z,99.90
2023-05-03T11:13:43.263Z,99.90
2023-05-03T11:14:45.126Z,99.90
2023-05-03T11:15:48.421Z,99.90
2023-05-03T11:16:51.820Z,99.90
2023-05-03T11:17:53.792Z,99.90
2023-05-03T11:18:56.338Z,99.90
2023-05-03T11:19:57.829Z,99.90
2023-05-03T11:20:59.746Z,99.90
2023-05-03T11:22:01.952Z,99.90
2023-05-03T11:23:04.250Z,99.90
2023-05-03T11:24:06.443Z,99.90
2023-05-03T11:25:08.239Z,99.90
2023-05-03T11:26:10.978Z,99.90
2023-05-03T11:27:14.160Z,99.90
2023-05-03T11:28:16.310Z,99.90
2023-05-03T11:29:18.678Z,99.90
2023-05-03T11:30:20.215Z,99.90
2023-05-03T11:31:23.028Z,99.90
2023-05-03T11:32:28.931Z,99.90
2023-05-03T11:33:31.298Z,99.90
2023-05-03T11:34:32.877Z,99.90
2023-05-03T11:35:34.334Z,99.90
2023-05-03T11:36:36.294Z,99.90
2023-05-03T11:37:37.857Z,99.90
2023-05-03T11:38:40.085Z,99.90
2023-05-03T11:39:41.945Z,99.90
2023-05-03T11:40:43.378Z,99.90
2023-05-03T11:41:44.877Z,99.90
2023-05-03T11:42:56.588Z,99.90
2023-05-03T11:44:12.241Z,99.90
2023-05-03T11:45:18.420Z,99.90
2023-05-03T11:46:26.481Z,99.90
2023-05-03T11:47:28.361Z,99.90
2023-05-03T11:48:33.407Z,99.90
2023-05-03T11:49:35.441Z,99.90
2023-05-03T11:50:51.823Z,99.90
2023-05-03T11:51:54.774Z,99.90
2023-05-03T11:52:57.482Z,99.90
2023-05-03T11:54:10.144Z,99.90
2023-05-03T11:55:23.788Z,99.90
2023-05-03T11:56:25.747Z,99.90
2023-05-03T11:57:27.391Z,99.90
2023-05-03T11:58:29.103Z,99.90
2023-05-03T11:59:41.166Z,99.90
2023-05-03T12:00:47.337Z,99.90
2023-05-03T12:01:49.427Z,99.90
2023-05-03T12:02:51.256Z,99.90
2023-05-03T12:04:05.429Z,99.90
2023-05-03T12:05:09.676Z,99.90
2023-05-03T12:07:16.572Z,99.90
2023-05-03T12:08:22.192Z,99.90
2023-05-03T12:09:29.470Z,99.90
2023-05-03T12:10:33.350Z,98.80
2023-05-03T12:11:43.850Z,98.60
2023-05-03T12:12:57.444Z,99.80
2023-05-03T12:14:01.005Z,97.60
2023-05-03T12:15:04.503Z,97.30
2023-05-03T12:16:13.737Z,97.10
2023-05-03T12:17:37.813Z,96.40
2023-05-03T12:18:51.030Z,97.00
2023-05-03T12:19:54.420Z,96.20
2023-05-03T12:21:30.518Z,97.60
2023-05-03T12:22:25.627Z,95.60
2023-05-03T12:23:28.161Z,96.10
2023-05-03T12:24:32.192Z,97.00
2023-05-03T12:25:39.199Z,95.00
2023-05-03T12:26:43.924Z,95.00
2023-05-03T12:28:49.421Z,94.50
2023-05-03T12:29:51.941Z,94.30
2023-05-03T12:30:53.853Z,94.20
2023-05-03T12:31:55.857Z,94.20
2023-05-03T12:32:58.759Z,93.80
2023-05-03T12:34:28.043Z,94.40
2023-05-03T12:35:23.372Z,94.20
2023-05-03T12:36:26.675Z,93.50
2023-05-03T12:37:28.373Z,93.90
2023-05-03T12:38:31.141Z,94.10
2023-05-03T12:39:33.545Z,95.00
2023-05-03T12:40:35.760Z,94.40
2023-05-03T12:42:43.210Z,94.10
2023-05-03T12:43:45.108Z,94.60
2023-05-03T12:44:48.246Z,94.00
2023-05-03T12:45:56.361Z,93.00
2023-05-03T12:47:11.503Z,92.70
2023-05-03T12:48:15.923Z,92.80
2023-05-03T12:49:17.672Z,93.20
2023-05-03T12:50:24.369Z,92.70
2023-05-03T12:51:27.821Z,92.60
2023-05-03T12:53:38.839Z,93.50
2023-05-03T12:54:42.128Z,93.40
2023-05-03T12:55:44.865Z,93.20
2023-05-03T12:56:48.436Z,92.80
2023-05-03T12:58:10.392Z,93.20
2023-05-03T12:59:31.861Z,91.70
2023-05-03T13:00:35.733Z,91.90
2023-05-03T13:02:37.912Z,92.30
2023-05-03T13:04:41.254Z,91.30
2023-05-03T13:05:35.432Z,91.70
2023-05-03T13:06:42.859Z,92.80
2023-05-03T13:07:45.069Z,91.20
2023-05-03T13:08:49.869Z,91.30
2023-05-03T13:10:56.550Z,90.20
2023-05-03T13:11:59.714Z,89.70
2023-05-03T13:13:01.929Z,91.20
2023-05-03T13:14:03.658Z,92.00
2023-05-03T13:15:06.178Z,91.50
2023-05-03T13:16:09.165Z,93.00
2023-05-03T13:17:13.480Z,91.80
2023-05-03T13:18:15.071Z,90.40
2023-05-03T13:19:16.934Z,90.20
2023-05-03T13:20:20.453Z,90.00
2023-05-03T13:21:22.411Z,90.20
2023-05-03T13:22:24.347Z,90.30
2023-05-03T13:23:26.043Z,91.00
2023-05-03T13:24:27.432Z,91.60
2023-05-03T13:25:28.970Z,91.60
2023-05-03T13:26:30.450Z,92.70
2023-05-03T13:27:32.063Z,90.70
2023-05-03T13:28:33.731Z,91.20
2023-05-03T13:29:35.414Z,91.20
2023-05-03T13:30:36.793Z,89.30
2023-05-03T13:31:38.305Z,90.00
2023-05-03T13:32:40.257Z,90.10
2023-05-03T13:33:41.769Z,91.50
2023-05-03T13:34:43.625Z,91.60
2023-05-03T13:35:47.633Z,92.00
2023-05-03T13:36:50.146Z,90.80
2023-05-03T13:37:52.863Z,90.90
2023-05-03T13:38:54.411Z,90.60
2023-05-03T13:39:56.520Z,91.40
2023-05-03T13:40:57.891Z,90.40
2023-05-03T13:41:59.479Z,90.10
2023-05-03T13:43:00.894Z,90.90
2023-05-03T13:44:02.788Z,90.70
2023-05-03T13:45:04.725Z,91.40
2023-05-03T13:46:06.870Z,89.50
2023-05-03T13:47:08.354Z,90.50
2023-05-03T13:48:18.357Z,90.80
2023-05-03T13:49:21.114Z,91.10
2023-05-03T13:50:22.524Z,90.10
2023-05-03T13:51:25.767Z,88.90